Time;durP1;ratioP1;P1;durP2;ratioP2;P2;SDS_P1;SDS_P2;PMS_P1;PMS_P2;Temp;Humidity;BMP_temperature;BMP_pressure;BME280_temperature;BME280_humidity;BME280_pressure;Samples;Min_cycle;Max_cycle;Signal;HPM_P1;HPM_P2
2021/12/08 00:00:55;;;;;;;3.45;2.45;;;;;;;14.29;31.31;96382.53;4997909;28;20439;-24
2021/12/08 00:03:22;;;;;;;4.78;2.65;;;;;;;14.31;31.24;96378.16;4996519;28;20129;-24
2021/12/08 00:05:48;;;;;;;4.60;2.80;;;;;;;14.25;31.39;96371.00;4998070;28;20046;-24
2021/12/08 00:08:17;;;;;;;4.72;2.53;;;;;;;14.28;31.15;96365.41;4997464;28;20026;-24
2021/12/08 00:13:24;;;;;;;4.15;2.78;;;;;;;14.27;31.62;96366.63;4997311;28;20407;-24
2021/12/08 00:15:53;;;;;;;3.63;2.90;;;;;;;14.27;31.33;96371.31;4998561;28;20499;-24
2021/12/08 00:18:26;;;;;;;3.33;2.10;;;;;;;14.21;31.46;96348.59;4996884;28;20467;-24
2021/12/08 00:20:56;;;;;;;3.15;2.40;;;;;;;14.23;31.52;96346.16;4996617;28;21579;-24
2021/12/08 00:23:22;;;;;;;3.72;2.50;;;;;;;14.23;31.12;96357.06;4997285;28;20394;-24
2021/12/08 00:25:49;;;;;;;3.50;2.55;;;;;;;14.24;31.12;96353.13;4996910;28;20969;-24
2021/12/08 00:28:15;;;;;;;3.88;2.20;;;;;;;14.19;30.78;96359.19;4997390;28;20037;-24
2021/12/08 00:30:50;;;;;;;4.15;2.53;;;;;;;14.23;30.96;96370.69;4996872;28;20053;-24
2021/12/08 00:33:18;;;;;;;4.43;2.33;;;;;;;14.23;31.19;96373.44;4996941;28;20475;-24
2021/12/08 00:35:47;;;;;;;3.72;2.40;;;;;;;14.20;31.02;96371.63;4996950;28;20553;-24
2021/12/08 00:38:13;;;;;;;3.25;2.20;;;;;;;14.25;31.15;96373.75;4996644;28;20025;-24
2021/12/08 00:40:39;;;;;;;3.83;2.30;;;;;;;14.13;31.60;96369.94;4997153;28;20039;-24
2021/12/08 00:43:06;;;;;;;3.53;2.22;;;;;;;14.17;31.04;96373.28;4996723;28;20025;-24
2021/12/08 00:45:33;;;;;;;4.80;2.10;;;;;;;14.19;31.20;96378.28;4997316;28;20361;-24
2021/12/08 00:48:00;;;;;;;3.90;2.22;;;;;;;14.17;31.10;96365.09;4996679;28;20025;-24
2021/12/08 00:50:34;;;;;;;3.83;2.17;;;;;;;14.18;31.46;96360.41;4996816;28;20387;-24
2021/12/08 00:53:00;;;;;;;3.08;2.20;;;;;;;14.18;31.07;96365.84;4997045;28;20103;-24
2021/12/08 00:55:27;;;;;;;3.15;2.35;;;;;;;14.21;31.12;96359.50;4997467;28;20472;-24
2021/12/08 00:57:53;;;;;;;3.80;2.13;;;;;;;14.10;31.37;96354.47;4995530;28;20073;-24
2021/12/08 01:00:26;;;;;;;3.35;1.95;;;;;;;14.08;31.25;96362.34;4997172;28;20383;-24
2021/12/08 01:02:51;;;;;;;3.92;1.90;;;;;;;14.14;31.27;96351.59;4997270;28;20029;-24
2021/12/08 01:05:22;;;;;;;4.50;2.33;;;;;;;14.10;31.14;96348.25;4997190;28;20072;-24
2021/12/08 01:07:47;;;;;;;2.67;1.92;;;;;;;14.14;31.08;96348.88;4997096;28;20515;-24
2021/12/08 01:10:19;;;;;;;5.18;2.45;;;;;;;14.06;31.25;96336.72;4997984;28;20045;-24
2021/12/08 01:12:45;;;;;;;4.78;2.50;;;;;;;14.11;31.05;96327.94;4999069;28;20747;-24
2021/12/08 01:15:10;;;;;;;4.32;2.50;;;;;;;14.10;31.13;96321.72;5000806;28;20056;-24
2021/12/08 01:17:38;;;;;;;3.30;2.35;;;;;;;14.09;31.72;96314.03;4998369;28;20034;-24
2021/12/08 01:20:07;;;;;;;2.97;2.00;;;;;;;14.11;31.28;96319.75;4998238;28;20055;-24
2021/12/08 01:22:32;;;;;;;2.85;1.95;;;;;;;14.08;31.20;96315.22;5000803;28;20811;-24
2021/12/08 01:24:58;;;;;;;3.85;2.80;;;;;;;14.05;31.24;96302.50;4998785;28;20021;-24
2021/12/08 01:27:23;;;;;;;3.50;2.42;;;;;;;14.07;30.96;96305.53;4998271;28;20801;-24
2021/12/08 01:29:48;;;;;;;3.85;2.42;;;;;;;14.06;31.12;96320.38;4998797;28;20076;-24
2021/12/08 01:32:14;;;;;;;3.75;2.33;;;;;;;14.08;31.23;96335.09;5006509;28;20030;-24
2021/12/08 01:34:40;;;;;;;5.82;2.70;;;;;;;14.06;31.30;96336.72;5006860;28;20033;-24
2021/12/08 01:37:05;;;;;;;3.78;2.50;;;;;;;14.09;30.96;96316.75;4998412;28;20446;-24
2021/12/08 01:39:31;;;;;;;4.47;2.65;;;;;;;13.98;31.16;96319.88;5001868;28;20262;-24
2021/12/08 01:41:56;;;;;;;3.65;2.53;;;;;;;14.03;31.27;96322.78;5006517;28;20052;-24
2021/12/08 01:47:06;;;;;;;4.15;2.72;;;;;;;14.00;31.29;96312.03;5006453;28;20032;-24
2021/12/08 01:49:32;;;;;;;4.50;2.83;;;;;;;14.02;31.19;96315.81;5006080;28;20021;-24
2021/12/08 01:51:57;;;;;;;4.78;2.85;;;;;;;14.00;31.31;96318.22;5006501;28;20053;-24
2021/12/08 01:54:23;;;;;;;3.78;2.50;;;;;;;14.02;31.15;96310.38;5007177;28;20067;-24
2021/12/08 01:56:49;;;;;;;4.25;2.30;;;;;;;14.01;30.72;96303.38;5008074;28;20085;-24
2021/12/08 01:59:14;;;;;;;4.22;2.85;;;;;;;13.99;30.90;96303.06;5009673;28;20151;-24
2021/12/08 02:01:44;;;;;;;4.05;2.92;;;;;;;13.97;30.94;96316.41;5018719;28;20040;-24
2021/12/08 02:04:11;;;;;;;5.38;2.58;;;;;;;14.06;30.92;96302.03;5035322;28;20022;-24
2021/12/08 02:06:40;;;;;;;4.85;2.63;;;;;;;13.98;31.20;96307.00;5036058;28;20028;-24
2021/12/08 02:09:09;;;;;;;4.20;2.60;;;;;;;14.00;30.77;96301.88;5035987;28;20406;-24
2021/12/08 02:11:36;;;;;;;6.78;3.20;;;;;;;14.00;31.36;96301.13;5035996;28;20032;-24
2021/12/08 02:14:03;;;;;;;3.88;2.65;;;;;;;13.95;31.07;96302.47;5035926;28;20049;-24
2021/12/08 02:16:30;;;;;;;5.05;3.05;;;;;;;13.97;30.98;96286.41;5035670;28;20029;-24
2021/12/08 02:18:56;;;;;;;4.75;2.60;;;;;;;13.97;30.87;96291.88;5034600;28;20452;-24
2021/12/08 02:21:24;;;;;;;6.13;2.80;;;;;;;13.94;31.06;96281.88;5035808;28;20065;-24
2021/12/08 02:23:51;;;;;;;4.03;2.55;;;;;;;13.96;31.40;96268.56;5035809;28;20483;-24
2021/12/08 02:26:17;;;;;;;4.30;2.90;;;;;;;13.94;31.02;96270.22;5036013;28;20036;-24
2021/12/08 02:28:44;;;;;;;6.20;3.22;;;;;;;13.93;31.06;96268.69;5035490;28;20387;-24
2021/12/08 02:31:13;;;;;;;4.55;2.90;;;;;;;13.93;31.23;96253.09;5035782;28;20021;-24
2021/12/08 02:50:15;;;;;;;4.22;2.95;;;;;;;13.91;30.89;96238.41;5035558;28;20033;-24
2021/12/08 02:52:40;;;;;;;5.75;2.97;;;;;;;13.85;30.99;96238.22;5035240;28;20029;-24
2021/12/08 02:55:07;;;;;;;4.22;2.75;;;;;;;13.83;31.27;96237.94;5035173;28;20513;-24
2021/12/08 02:57:34;;;;;;;5.78;2.92;;;;;;;13.92;31.29;96235.22;5034892;28;20108;-24
2021/12/08 03:00:04;;;;;;;4.40;2.92;;;;;;;13.88;30.92;96250.97;5035473;28;20053;-24
2021/12/08 03:02:29;;;;;;;5.43;2.85;;;;;;;13.89;31.11;96247.03;5035063;28;20045;-24
2021/12/08 03:04:55;;;;;;;5.90;3.08;;;;;;;13.85;31.25;96245.66;5035004;28;20032;-24
2021/12/08 03:07:20;;;;;;;5.85;3.38;;;;;;;13.81;31.01;96245.81;5034844;28;20494;-24
2021/12/08 03:09:46;;;;;;;5.25;3.13;;;;;;;13.88;31.29;96237.34;5032605;28;20029;-24
2021/12/08 03:12:11;;;;;;;4.07;3.13;;;;;;;13.90;30.94;96237.63;5032691;28;20031;-24
2021/12/08 03:14:37;;;;;;;5.80;2.78;;;;;;;13.87;30.62;96221.41;5034431;28;20044;-24
2021/12/08 03:17:08;;;;;;;5.45;3.08;;;;;;;13.82;31.30;96222.78;5034516;28;20024;-24
2021/12/08 03:19:34;;;;;;;3.55;2.72;;;;;;;13.86;30.92;96220.66;5034793;28;20099;-24
2021/12/08 03:22:08;;;;;;;4.80;3.40;;;;;;;13.87;30.99;96213.25;5034776;28;20025;-24
2021/12/08 03:24:36;;;;;;;3.97;2.95;;;;;;;13.86;30.79;96204.31;5034610;28;20053;-24
2021/12/08 03:29:50;;;;;;;5.65;3.45;;;;;;;13.87;30.68;96202.34;5034523;28;20024;-24
2021/12/08 03:32:24;;;;;;;5.97;3.20;;;;;;;13.81;31.10;96202.19;5034595;28;20025;-24
2021/12/08 03:34:51;;;;;;;4.80;2.80;;;;;;;13.89;30.84;96195.22;5034594;28;20025;-24
2021/12/08 03:37:27;;;;;;;4.60;3.00;;;;;;;13.80;30.68;96205.38;5034659;28;20022;-24
2021/12/08 03:39:53;;;;;;;4.47;3.42;;;;;;;13.80;31.04;96178.88;5034246;28;20080;-24
2021/12/08 03:42:23;;;;;;;5.53;3.40;;;;;;;13.79;30.75;96182.81;5034533;28;20360;-24
2021/12/08 03:44:50;;;;;;;5.85;3.40;;;;;;;13.81;31.18;96169.50;5034165;28;20032;-24
2021/12/08 03:47:18;;;;;;;4.65;3.20;;;;;;;13.81;31.01;96172.22;5034224;28;20547;-24
2021/12/08 03:49:45;;;;;;;5.30;3.17;;;;;;;13.77;31.39;96171.59;5033329;28;20365;-24
2021/12/08 03:52:11;;;;;;;4.50;3.25;;;;;;;13.71;31.00;96176.16;5034009;28;20082;-24
2021/12/08 03:54:37;;;;;;;5.75;3.58;;;;;;;13.82;30.84;96164.78;5034258;28;20101;-24
2021/12/08 03:57:04;;;;;;;6.25;3.20;;;;;;;13.74;30.76;96160.84;5033975;28;20022;-24
2021/12/08 03:59:29;;;;;;;5.95;3.40;;;;;;;13.77;31.10;96157.97;5033901;28;20495;-24
2021/12/08 04:01:55;;;;;;;4.32;2.92;;;;;;;13.86;31.08;96163.41;5034176;28;20041;-24
2021/12/08 04:04:26;;;;;;;4.03;2.90;;;;;;;13.83;30.73;96158.91;5033899;28;20067;-24
2021/12/08 04:06:52;;;;;;;4.88;3.20;;;;;;;13.77;31.02;96162.66;5033871;28;20025;-24
2021/12/08 04:09:31;;;;;;;5.20;3.20;;;;;;;13.76;30.55;96152.97;5034043;28;20021;-24
2021/12/08 04:11:58;;;;;;;5.15;3.00;;;;;;;13.74;30.95;96147.97;5033995;28;20017;-24
2021/12/08 04:14:28;;;;;;;5.18;2.97;;;;;;;13.75;30.71;96146.75;5033963;28;20387;-24
2021/12/08 04:17:08;;;;;;;5.13;3.55;;;;;;;13.78;30.91;96136.94;5033528;28;20037;-24
2021/12/08 04:19:34;;;;;;;4.85;3.20;;;;;;;13.75;31.36;96141.31;5033343;28;20455;-24
2021/12/08 04:22:04;;;;;;;4.20;3.10;;;;;;;13.76;30.93;96145.56;5033647;28;20112;-24
2021/12/08 04:24:30;;;;;;;4.65;2.97;;;;;;;13.66;31.25;96150.25;5032285;28;20136;-24
2021/12/08 04:27:04;;;;;;;4.70;2.90;;;;;;;13.68;31.43;96151.75;5033482;28;20108;-24
2021/12/08 04:29:36;;;;;;;3.53;2.65;;;;;;;13.77;31.09;96149.78;5033958;28;20152;-24
2021/12/08 04:32:04;;;;;;;4.65;3.08;;;;;;;13.72;31.23;96138.75;5033648;28;20494;-24
2021/12/08 04:34:38;;;;;;;4.20;2.88;;;;;;;13.79;31.02;96141.16;5033436;28;20021;-24
2021/12/08 04:37:16;;;;;;;3.90;2.72;;;;;;;13.81;30.97;96136.78;5033463;28;20033;-24
2021/12/08 04:39:59;;;;;;;3.85;2.42;;;;;;;13.78;30.96;96136.94;5033375;28;20053;-24
2021/12/08 04:42:41;;;;;;;3.58;2.40;;;;;;;13.76;31.28;96133.88;5033378;28;20029;-24
2021/12/08 04:45:13;;;;;;;3.67;2.30;;;;;;;13.72;31.02;96123.16;5033390;28;20075;-24
2021/12/08 04:48:04;;;;;;;3.92;2.80;;;;;;;13.69;31.23;96123.31;5033239;28;20045;-24
2021/12/08 04:50:47;;;;;;;5.38;2.75;;;;;;;13.70;31.49;96125.56;5033169;28;20155;-24
2021/12/08 05:01:57;;;;;;;3.63;2.47;;;;;;;13.76;31.13;96112.09;5033468;28;20037;-24
2021/12/08 05:07:17;;;;;;;3.35;2.22;;;;;;;13.73;31.38;96119.19;5033629;28;20026;-24
2021/12/08 05:09:46;;;;;;;3.40;2.42;;;;;;;13.73;31.31;96111.03;5033142;28;20080;-24
2021/12/08 05:12:17;;;;;;;3.33;2.40;;;;;;;13.72;31.18;96098.63;5033000;28;20475;-24
2021/12/08 05:14:45;;;;;;;3.20;2.35;;;;;;;13.72;31.40;96097.88;5033207;28;20069;-24
2021/12/08 05:17:16;;;;;;;3.75;2.17;;;;;;;13.64;31.65;96105.59;5033144;28;20029;-24
2021/12/08 05:19:45;;;;;;;4.20;2.40;;;;;;;13.66;31.51;96103.16;5033050;28;20147;-24
2021/12/08 05:22:19;;;;;;;2.92;2.05;;;;;;;13.71;31.41;96108.03;5032019;28;20116;-24
2021/12/08 05:24:48;;;;;;;3.38;2.40;;;;;;;13.65;31.93;96098.91;5032941;28;20101;-24
2021/12/08 05:27:29;;;;;;;3.67;2.30;;;;;;;13.73;31.38;96102.09;5033022;28;20045;-24
2021/12/08 05:30:00;;;;;;;3.90;2.40;;;;;;;13.73;31.58;96091.19;5061729;28;20087;-24
2021/12/08 05:32:26;;;;;;;4.28;2.28;;;;;;;13.72;31.95;96097.88;5035555;28;20048;-24
2021/12/08 05:34:52;;;;;;;3.92;2.35;;;;;;;13.66;31.91;96101.19;5036608;28;20036;-24
2021/12/08 05:37:19;;;;;;;4.07;2.20;;;;;;;13.70;32.02;96103.78;5036627;28;20399;-24
2021/12/08 05:39:45;;;;;;;3.90;2.50;;;;;;;13.74;32.14;96109.06;5036531;28;20545;-24
2021/12/08 05:42:18;;;;;;;4.72;2.55;;;;;;;13.62;32.26;96103.31;5036823;28;20116;-24
2021/12/08 05:44:44;;;;;;;;;;;;;;;13.73;32.26;96102.09;5036918;28;20029;-24
2021/12/08 05:47:16;;;;;;;3.97;2.30;;;;;;;13.71;32.23;96096.34;5036681;28;19919;-24
2021/12/08 05:49:42;;;;;;;4.67;2.10;;;;;;;13.72;32.36;96100.59;5036864;28;20160;-24
2021/12/08 05:52:08;;;;;;;3.40;2.17;;;;;;;13.73;32.21;96091.19;5036313;28;20409;-24
2021/12/08 05:54:38;;;;;;;3.47;2.40;;;;;;;13.72;32.35;96081.53;5036626;28;20090;-24
2021/12/08 05:57:14;;;;;;;3.38;2.17;;;;;;;13.63;32.44;96098.63;5036290;28;20028;-24
2021/12/08 05:59:41;;;;;;;2.58;1.90;;;;;;;13.74;32.52;96093.47;5036126;28;20522;-24
2021/12/08 06:02:12;;;;;;;5.30;2.22;;;;;;;13.75;32.51;96088.78;5036107;28;20044;-24
2021/12/08 06:04:38;;;;;;;3.08;2.10;;;;;;;13.77;32.32;96086.34;5036405;28;20021;-24
2021/12/08 06:07:06;;;;;;;3.28;2.08;;;;;;;13.70;32.88;96081.22;5036245;28;20391;-24
2021/12/08 06:09:32;;;;;;;4.55;2.40;;;;;;;13.72;32.89;96084.25;5036104;28;20049;-24
2021/12/08 06:11:58;;;;;;;2.72;2.03;;;;;;;13.72;32.88;96090.47;5036018;28;20030;-24
2021/12/08 06:14:31;;;;;;;3.22;1.90;;;;;;;13.73;33.02;96081.03;5036090;28;20079;-24
2021/12/08 06:16:57;;;;;;;3.05;2.22;;;;;;;13.60;32.81;96086.66;5035962;28;20045;-24
2021/12/08 06:19:23;;;;;;;3.35;2.30;;;;;;;13.65;32.95;96080.59;5035855;28;20447;-24
2021/12/08 06:21:49;;;;;;;2.53;1.90;;;;;;;13.68;32.92;96070.00;5035927;28;20060;-24
2021/12/08 06:24:16;;;;;;;3.72;2.00;;;;;;;13.70;33.25;96079.25;5035879;28;20044;-24
2021/12/08 06:26:43;;;;;;;3.53;1.92;;;;;;;13.74;33.05;96071.66;5035719;28;20029;-24
2021/12/08 06:29:11;;;;;;;2.85;1.90;;;;;;;13.79;33.10;96060.16;5035899;28;20447;-24
2021/12/08 06:31:38;;;;;;;2.97;2.20;;;;;;;13.71;33.26;96055.47;5035901;28;20056;-24
2021/12/08 06:34:05;;;;;;;3.15;2.03;;;;;;;13.74;33.30;96047.13;5035823;28;20021;-24
2021/12/08 06:36:47;;;;;;;3.47;2.30;;;;;;;13.65;33.38;96050.63;5035425;28;20029;-24
2021/12/08 06:39:17;;;;;;;3.20;2.13;;;;;;;13.72;33.30;96057.75;5035676;28;20025;-24
2021/12/08 06:41:47;;;;;;;3.17;1.88;;;;;;;13.75;33.62;96045.91;5035327;28;20026;-24
2021/12/08 06:44:21;;;;;;;2.58;1.80;;;;;;;13.74;33.55;96052.59;5035743;28;20033;-24
2021/12/08 06:46:49;;;;;;;3.20;2.00;;;;;;;13.70;33.64;96053.97;5035404;28;20033;-24
2021/12/08 06:49:18;;;;;;;2.70;1.70;;;;;;;13.69;33.82;96055.19;5035359;28;20037;-24
2021/12/08 06:51:56;;;;;;;3.72;2.38;;;;;;;13.69;34.09;96055.19;5035247;28;20467;-24
2021/12/08 06:54:36;;;;;;;2.88;1.80;;;;;;;13.69;34.30;96041.56;5035169;28;20390;-24
2021/12/08 06:57:13;;;;;;;2.50;1.70;;;;;;;13.66;34.41;96027.63;5035054;28;20479;-24
2021/12/08 06:59:51;;;;;;;2.42;1.73;;;;;;;13.65;34.38;96036.25;5035110;28;20055;-24
2021/12/08 07:02:34;;;;;;;2.22;1.60;;;;;;;13.64;34.15;96037.47;5033790;28;20022;-24
2021/12/08 07:05:25;;;;;;;3.35;2.08;;;;;;;13.66;34.29;96032.31;5035017;28;20021;-24
2021/12/08 07:07:52;;;;;;;2.75;1.83;;;;;;;13.71;34.39;96030.97;5035042;28;20056;-24
2021/12/08 07:10:27;;;;;;;2.40;1.77;;;;;;;13.73;34.70;96025.78;5035166;28;20394;-24
2021/12/08 07:12:59;;;;;;;3.45;1.67;;;;;;;13.66;34.77;96032.31;5034946;28;20022;-24
2021/12/08 07:15:35;;;;;;;4.90;2.27;;;;;;;13.66;34.60;96033.06;5034786;28;20147;-24
2021/12/08 07:18:07;;;;;;;3.17;2.17;;;;;;;13.68;34.75;96035.34;5034745;28;20036;-24
2021/12/08 07:20:46;;;;;;;3.08;1.90;;;;;;;13.72;34.74;96027.03;5034844;28;20189;-24
2021/12/08 07:23:24;;;;;;;3.08;1.73;;;;;;;13.73;34.75;96029.25;5034498;28;20475;-24
2021/12/08 07:25:52;;;;;;;3.13;1.80;;;;;;;13.68;34.91;96024.44;5021069;28;20033;-24
2021/12/08 07:28:19;;;;;;;2.60;1.60;;;;;;;13.61;34.91;96019.28;5012623;28;20028;-24
2021/12/08 07:30:56;;;;;;;2.10;1.40;;;;;;;13.73;34.91;96023.06;5012863;28;20487;-24
2021/12/08 07:33:22;;;;;;;3.63;1.98;;;;;;;13.69;35.49;96023.22;5012950;28;20026;-24
2021/12/08 07:35:53;;;;;;;2.38;1.70;;;;;;;13.76;35.14;96025.63;5012704;28;20510;-24
2021/12/08 07:38:24;;;;;;;3.97;2.30;;;;;;;13.77;35.01;96021.69;5012425;28;20026;-24
2021/12/08 07:40:58;;;;;;;3.00;2.08;;;;;;;13.79;35.27;96016.56;5012822;28;20028;-24
2021/12/08 07:43:25;;;;;;;3.92;2.00;;;;;;;13.70;35.49;96002.94;5012395;28;20033;-24
2021/12/08 07:46:03;;;;;;;4.25;2.42;;;;;;;13.69;35.63;95993.25;5012594;28;20034;-24
2021/12/08 07:48:36;;;;;;;4.30;2.30;;;;;;;13.72;35.32;95994.31;5012208;28;20022;-24
2021/12/08 07:51:17;;;;;;;3.92;2.17;;;;;;;13.65;35.58;95984.47;5012440;28;20041;-24
2021/12/08 07:53:44;;;;;;;4.75;2.45;;;;;;;13.74;35.73;95980.97;5011801;28;20041;-24
2021/12/08 07:56:12;;;;;;;4.65;2.38;;;;;;;13.64;36.01;95974.78;5012281;28;20033;-24
2021/12/08 07:58:41;;;;;;;3.78;2.15;;;;;;;13.35;36.67;95969.84;5011922;28;20066;-24
2021/12/08 08:01:16;;;;;;;3.80;2.28;;;;;;;13.42;37.09;95963.31;5012285;28;20087;-24
2021/12/08 08:03:43;;;;;;;3.28;1.90;;;;;;;13.41;36.86;95956.34;5014741;28;20029;-24
2021/12/08 08:06:17;;;;;;;2.95;2.00;;;;;;;13.44;36.99;95969.06;5031712;28;20040;-24
2021/12/08 08:08:43;;;;;;;3.50;2.13;;;;;;;13.23;38.03;95990.56;5029782;28;20025;-24
2021/12/08 08:11:19;;;;;;;3.38;1.58;;;;;;;12.67;40.08;95982.00;5017751;28;20028;-24
2021/12/08 08:13:45;;;;;;;3.65;2.10;;;;;;;13.00;39.41;95998.53;5011900;28;20494;-24
2021/12/08 08:16:18;;;;;;;4.30;1.40;;;;;;;13.15;39.20;95994.78;5012156;28;20034;-24
2021/12/08 08:18:51;;;;;;;5.53;1.90;;;;;;;13.38;38.79;96000.84;5011964;28;20029;-24
2021/12/08 08:21:20;;;;;;;4.38;2.30;;;;;;;13.27;38.98;95996.63;5011998;28;20439;-24
2021/12/08 08:23:46;;;;;;;3.15;1.75;;;;;;;13.29;38.88;95994.19;5012050;28;20030;-24
2021/12/08 08:26:14;;;;;;;6.35;2.20;;;;;;;13.24;39.01;95981.19;5026910;28;20033;-24
2021/12/08 08:28:42;;;;;;;4.78;1.90;;;;;;;13.30;39.09;95973.16;5031689;28;20112;-24
2021/12/08 08:31:12;;;;;;;4.35;2.03;;;;;;;13.28;39.16;95981.78;5031717;28;20472;-24
2021/12/08 08:33:41;;;;;;;3.83;1.63;;;;;;;13.24;39.24;95969.53;5031552;28;20120;-24
2021/12/08 08:36:10;;;;;;;2.67;1.20;;;;;;;13.17;39.63;95986.19;5031573;28;20034;-24
2021/12/08 08:38:59;;;;;;;3.55;1.60;;;;;;;13.22;39.88;95988.31;5030962;28;20029;-24
2021/12/08 08:41:45;;;;;;;3.45;1.60;;;;;;;13.33;39.79;95983.16;5031208;28;20383;-24
2021/12/08 08:44:25;;;;;;;2.35;1.40;;;;;;;13.34;39.96;96000.25;5030123;28;20032;-24
2021/12/08 08:46:52;;;;;;;2.63;1.67;;;;;;;13.39;39.99;95977.84;5030783;28;20540;-24
2021/12/08 08:49:21;;;;;;;3.30;1.55;;;;;;;13.35;40.07;95985.44;5031129;28;20056;-24
2021/12/08 08:52:00;;;;;;;2.97;1.60;;;;;;;13.33;40.25;95979.69;5031114;28;20484;-24
2021/12/08 08:54:29;;;;;;;3.40;1.45;;;;;;;13.32;40.47;95975.44;5031031;28;20029;-24
2021/12/08 08:57:03;;;;;;;4.00;1.38;;;;;;;13.25;40.74;95955.47;5031173;28;20032;-24
2021/12/08 08:59:42;;;;;;;3.75;1.13;;;;;;;13.25;41.47;95950.00;5030917;28;20045;-24
2021/12/08 09:02:10;;;;;;;2.85;1.42;;;;;;;13.29;41.08;95945.19;5031135;28;20387;-24
2021/12/08 09:04:42;;;;;;;2.30;1.30;;;;;;;12.93;42.62;95961.50;5030908;28;20052;-24
2021/12/08 09:07:13;;;;;;;3.15;1.40;;;;;;;13.02;42.67;95934.25;5035081;28;20033;-24
2021/12/08 09:09:42;;;;;;;2.17;1.20;;;;;;;13.06;42.18;95937.59;5033288;28;20033;-24
2021/12/08 09:12:13;;;;;;;1.42;1.20;;;;;;;13.19;42.24;95940.94;5033696;28;20427;-24
2021/12/08 09:14:45;;;;;;;3.17;1.35;;;;;;;13.19;42.48;95924.63;5035077;28;20468;-24
2021/12/08 09:17:19;;;;;;;3.10;1.30;;;;;;;12.76;43.70;95924.88;5035200;28;20044;-24
2021/12/08 09:20:01;;;;;;;4.50;1.35;;;;;;;12.99;43.61;95916.13;5034906;28;20287;-24
2021/12/08 09:22:35;;;;;;;4.63;1.20;;;;;;;13.00;43.26;95919.59;5034842;28;20557;-24
2021/12/08 09:25:25;;;;;;;3.55;1.27;;;;;;;13.16;43.04;95935.66;5034246;28;20124;-24
2021/12/08 09:27:54;;;;;;;3.95;1.17;;;;;;;12.73;44.68;95950.28;5034533;28;20026;-24
2021/12/08 09:30:32;;;;;;;3.97;1.20;;;;;;;12.84;43.79;95937.75;5034104;28;20033;-24
2021/12/08 09:33:03;;;;;;;2.50;1.25;;;;;;;12.85;43.94;95939.28;5034922;28;20492;-24
2021/12/08 09:35:32;;;;;;;3.88;1.30;;;;;;;12.86;44.20;95918.97;5034387;28;20371;-24
2021/12/08 09:38:10;;;;;;;1.60;1.08;;;;;;;13.06;43.97;95924.00;5034553;28;20517;-24
2021/12/08 09:40:48;;;;;;;4.13;1.40;;;;;;;12.75;45.03;95898.88;5034792;28;20021;-24
2021/12/08 09:43:24;;;;;;;6.20;2.67;;;;;;;12.69;45.79;95897.97;5034716;28;20558;-24
2021/12/08 09:46:01;;;;;;;5.50;2.95;;;;;;;12.94;44.99;95894.97;5034788;28;20037;-24
2021/12/08 09:48:29;;;;;;;6.50;2.92;;;;;;;13.01;44.96;95883.75;5034344;28;20053;-24
2021/12/08 09:50:57;;;;;;;5.03;2.70;;;;;;;13.05;45.02;95886.31;5034510;28;20543;-24
2021/12/08 09:53:25;;;;;;;5.05;2.58;;;;;;;13.05;44.79;95881.66;5034415;28;20025;-24
2021/12/08 09:55:50;;;;;;;5.75;2.90;;;;;;;13.12;44.92;95884.03;5034404;28;20028;-24
2021/12/08 09:58:17;;;;;;;5.78;2.45;;;;;;;13.07;44.89;95892.84;5034065;28;20037;-24
2021/12/08 10:00:44;;;;;;;5.15;2.25;;;;;;;13.01;45.77;95891.91;5034092;28;20021;-24
2021/12/08 10:03:13;;;;;;;5.88;2.75;;;;;;;12.95;45.47;95863.81;5034338;28;20034;-24
2021/12/08 10:05:41;;;;;;;6.05;2.50;;;;;;;12.35;48.47;95856.25;5034341;28;20040;-24
2021/12/08 10:08:09;;;;;;;6.18;3.15;;;;;;;12.42;47.46;95847.78;5032324;28;20024;-24
2021/12/08 10:10:36;;;;;;;6.78;2.70;;;;;;;12.11;49.33;95837.03;5034250;28;20030;-24
2021/12/08 10:13:02;;;;;;;6.38;2.88;;;;;;;12.43;48.15;95832.97;5033993;28;20034;-24
2021/12/08 10:15:28;;;;;;;9.50;3.17;;;;;;;11.97;50.43;95864.00;5034120;28;20029;-24
2021/12/08 10:17:56;;;;;;;7.55;2.58;;;;;;;12.63;47.66;95810.00;5033106;28;20029;-24
2021/12/08 10:20:32;;;;;;;6.07;2.00;;;;;;;12.02;50.38;95820.69;5033880;28;20018;-24
2021/12/08 10:23:18;;;;;;;5.88;2.20;;;;;;;12.76;47.32;95805.16;5034056;28;20517;-24
2021/12/08 10:26:06;;;;;;;5.65;2.08;;;;;;;12.72;47.74;95807.28;5033388;28;20032;-24
2021/12/08 10:28:38;;;;;;;4.80;2.30;;;;;;;12.80;47.54;95822.09;5032522;28;20022;-24
2021/12/08 10:31:29;;;;;;;5.55;1.98;;;;;;;12.33;48.58;95834.19;5033608;28;20416;-24
2021/12/08 10:39:22;;;;;;;6.10;2.70;;;;;;;11.88;51.75;95800.28;5033905;28;20025;-24
2021/12/08 10:42:09;;;;;;;8.40;2.60;;;;;;;11.68;52.99;95807.28;5033813;28;20131;-24
2021/12/08 10:44:45;;;;;;;5.80;1.88;;;;;;;11.86;52.26;95778.25;5033402;28;20102;-24
2021/12/08 10:47:18;;;;;;;3.63;1.85;;;;;;;12.43;49.90;95788.72;5033401;28;20365;-24
2021/12/08 10:55:00;;;;;;;8.13;2.05;;;;;;;11.90;51.66;95750.91;5033350;28;20063;-25
2021/12/08 10:57:45;;;;;;;7.20;2.42;;;;;;;12.30;50.11;95745.34;5033099;28;20459;-24
2021/12/08 11:00:20;;;;;;;6.88;2.00;;;;;;;11.98;51.71;95754.88;5033306;28;20061;-24
2021/12/08 11:02:52;;;;;;;6.32;1.83;;;;;;;12.21;50.87;95739.94;5033376;28;20029;-24
2021/12/08 11:05:23;;;;;;;5.07;2.15;;;;;;;12.51;50.30;95741.72;5032712;28;20529;-24
2021/12/08 11:08:01;;;;;;;5.50;2.10;;;;;;;12.23;51.65;95729.38;5033012;28;20056;-24
2021/12/08 11:10:27;;;;;;;6.00;1.80;;;;;;;12.21;50.59;95732.53;5032807;28;20497;-24
2021/12/08 11:12:55;;;;;;;6.40;2.53;;;;;;;12.17;51.43;95736.59;5032038;28;20038;-24
2021/12/08 11:15:23;;;;;;;5.32;1.90;;;;;;;12.35;51.24;95712.13;5032573;28;20039;-24
2021/12/08 11:18:05;;;;;;;6.25;1.90;;;;;;;11.97;52.15;95698.25;5032816;28;20530;-23
2021/12/08 11:20:32;;;;;;;9.23;2.20;;;;;;;12.51;50.64;95692.75;5032634;28;20798;-24
2021/12/08 11:23:08;;;;;;;6.43;2.90;;;;;;;12.42;50.70;95679.19;5032881;28;20040;-24
2021/12/08 11:25:45;;;;;;;3.20;1.92;;;;;;;12.49;50.60;95678.84;5032297;28;20100;-24
2021/12/08 11:28:20;;;;;;;5.93;2.38;;;;;;;12.01;53.46;95682.53;5032191;28;20387;-24
2021/12/08 11:30:45;;;;;;;6.93;2.17;;;;;;;12.08;52.23;95676.81;5031908;28;20387;-23
2021/12/08 11:33:18;;;;;;;7.25;2.38;;;;;;;12.32;51.52;95687.81;5032517;28;20037;-24
2021/12/08 11:35:45;;;;;;;4.25;2.45;;;;;;;11.99;54.21;95728.44;5031131;28;20095;-24
2021/12/08 11:38:11;;;;;;;4.47;2.25;;;;;;;11.97;54.19;95655.53;5027638;28;20037;-24
2021/12/08 11:40:37;;;;;;;7.50;2.53;;;;;;;11.47;56.48;95678.56;5019052;28;20034;-24
2021/12/08 11:43:03;;;;;;;4.97;1.85;;;;;;;12.04;54.02;95657.19;5012609;28;20038;-24
2021/12/08 11:45:39;;;;;;;5.13;1.90;;;;;;;12.31;53.10;95673.47;5030946;28;20029;-23
2021/12/08 11:48:20;;;;;;;5.13;2.40;;;;;;;11.96;54.99;95664.13;5032363;28;20022;-24
2021/12/08 11:50:46;;;;;;;7.22;3.17;;;;;;;11.90;55.24;95638.75;5032267;28;20036;-23
2021/12/08 11:53:20;;;;;;;8.70;2.70;;;;;;;12.45;53.20;95642.16;5032137;28;20025;-24
2021/12/08 11:55:46;;;;;;;7.10;2.60;;;;;;;12.65;51.99;95631.53;5028882;28;20022;-24
2021/12/08 11:58:11;;;;;;;7.53;2.75;;;;;;;12.50;53.06;95658.59;5011957;28;20049;-24
2021/12/08 12:00:40;;;;;;;9.93;3.63;;;;;;;12.39;54.09;95639.31;5011936;28;20037;-24
2021/12/08 12:03:09;;;;;;;6.35;2.70;;;;;;;12.41;53.47;95636.88;5012034;28;20037;-23
2021/12/08 12:05:39;;;;;;;6.38;2.92;;;;;;;12.59;53.21;95633.38;5012304;28;20864;-24
2021/12/08 12:08:08;;;;;;;5.30;2.78;;;;;;;12.35;53.83;95616.22;5010285;28;20029;-24
2021/12/08 12:10:37;;;;;;;7.05;2.95;;;;;;;12.41;55.08;95619.81;5010877;28;20022;-24
2021/12/08 12:13:03;;;;;;;5.72;2.13;;;;;;;12.17;55.03;95627.88;5012019;28;20026;-23
2021/12/08 12:15:30;;;;;;;6.88;2.70;;;;;;;12.30;54.82;95614.09;5012030;28;20029;-24
2021/12/08 12:17:56;;;;;;;6.45;2.35;;;;;;;12.57;54.41;95603.91;5029772;28;20025;-24
2021/12/08 12:20:38;;;;;;;4.82;1.80;;;;;;;12.32;55.32;95582.53;5031605;28;20507;-24
2021/12/08 12:23:20;;;;;;;4.10;1.90;;;;;;;12.37;56.94;95587.34;5031790;28;20036;-24
2021/12/08 12:26:01;;;;;;;3.60;1.70;;;;;;;12.45;56.42;95572.22;5031330;28;20029;-24
2021/12/08 12:29:09;;;;;;;5.75;1.50;;;;;;;11.96;59.01;95560.88;5031421;28;20040;-24
2021/12/08 12:32:03;;;;;;;4.28;1.65;;;;;;;12.36;57.10;95539.63;5030925;28;20431;-24
2021/12/08 12:34:33;;;;;;;2.92;1.60;;;;;;;12.58;55.77;95518.38;5030817;28;20467;-24
2021/12/08 12:37:04;;;;;;;3.72;1.67;;;;;;;12.59;56.00;95536.22;5030425;28;20112;-24